sensor_id;sensor_type;location;lat;lon;timestamp;temperature;humidity
42615;DHT22;28754;47.700;7.924;2023-03-16T00:02:34;2.20;99.90
42615;DHT22;28754;47.700;7.924;2023-03-16T00:05:21;2.20;99.90
42615;DHT22;28754;47.700;7.924;2023-03-16T00:08:11;2.20;99.90
42615;DHT22;28754;47.700;7.924;2023-03-16T00:10:57;2.20;99.90
42615;DHT22;28754;47.700;7.924;2023-03-16T00:13:44;2.20;99.90
42615;DHT22;28754;47.700;7.924;2023-03-16T00:16:30;2.10;99.90
42615;DHT22;28754;47.700;7.924;2023-03-16T00:19:17;2.10;99.90
42615;DHT22;28754;47.700;7.924;2023-03-16T00:22:03;2.20;99.90
42615;DHT22;28754;47.700;7.924;2023-03-16T00:24:50;2.20;99.90
42615;DHT22;28754;47.700;7.924;2023-03-16T00:27:37;2.20;99.90
42615;DHT22;28754;47.700;7.924;2023-03-16T00:30:24;2.20;99.90
42615;DHT22;28754;47.700;7.924;2023-03-16T00:33:12;2.30;99.90
42615;DHT22;28754;47.700;7.924;2023-03-16T00:35:59;2.30;99.90
42615;DHT22;28754;47.700;7.924;2023-03-16T00:38:49;2.20;99.90
42615;DHT22;28754;47.700;7.924;2023-03-16T00:41:36;2.20;99.90
42615;DHT22;28754;47.700;7.924;2023-03-16T00:44:25;2.20;99.90
42615;DHT22;28754;47.700;7.924;2023-03-16T00:47:12;2.10;99.90
42615;DHT22;28754;47.700;7.924;2023-03-16T00:50:02;2.20;99.90
42615;DHT22;28754;47.700;7.924;2023-03-16T00:52:48;2.10;99.90
42615;DHT22;28754;47.700;7.924;2023-03-16T00:55:38;2.10;99.90
42615;DHT22;28754;47.700;7.924;2023-03-16T00:58:25;2.00;99.90
42615;DHT22;28754;47.700;7.924;2023-03-16T01:01:12;2.00;99.90
42615;DHT22;28754;47.700;7.924;2023-03-16T01:04:01;2.00;99.90
42615;DHT22;28754;47.700;7.924;2023-03-16T01:06:48;2.00;99.90
42615;DHT22;28754;47.700;7.924;2023-03-16T01:09:35;2.00;99.90
42615;DHT22;28754;47.700;7.924;2023-03-16T01:12:22;2.00;99.90
42615;DHT22;28754;47.700;7.924;2023-03-16T01:15:09;2.00;99.90
42615;DHT22;28754;47.700;7.924;2023-03-16T01:17:55;2.10;99.90
42615;DHT22;28754;47.700;7.924;2023-03-16T01:20:42;1.90;99.90
42615;DHT22;28754;47.700;7.924;2023-03-16T01:23:35;2.00;99.90
42615;DHT22;28754;47.700;7.924;2023-03-16T01:26:22;2.00;99.90
42615;DHT22;28754;47.700;7.924;2023-03-16T01:29:10;2.00;99.90
42615;DHT22;28754;47.700;7.924;2023-03-16T01:31:59;2.00;99.90
42615;DHT22;28754;47.700;7.924;2023-03-16T01:34:46;1.90;99.90
42615;DHT22;28754;47.700;7.924;2023-03-16T01:37:33;2.00;99.90
42615;DHT22;28754;47.700;7.924;2023-03-16T01:40:31;1.90;99.90
42615;DHT22;28754;47.700;7.924;2023-03-16T01:43:18;1.90;99.90
42615;DHT22;28754;47.700;7.924;2023-03-16T01:54:51;1.90;99.90
42615;DHT22;28754;47.700;7.924;2023-03-16T01:57:44;1.90;99.90
42615;DHT22;28754;47.700;7.924;2023-03-16T02:00:32;1.80;99.90
42615;DHT22;28754;47.700;7.924;2023-03-16T02:03:28;1.80;99.90
42615;DHT22;28754;47.700;7.924;2023-03-16T02:06:26;1.80;99.90
42615;DHT22;28754;47.700;7.924;2023-03-16T02:09:15;1.70;99.90
42615;DHT22;28754;47.700;7.924;2023-03-16T02:12:04;1.70;99.90
42615;DHT22;28754;47.700;7.924;2023-03-16T02:14:57;1.70;99.90
42615;DHT22;28754;47.700;7.924;2023-03-16T02:17:44;1.70;99.90
42615;DHT22;28754;47.700;7.924;2023-03-16T02:20:35;1.70;99.90
42615;DHT22;28754;47.700;7.924;2023-03-16T02:23:28;1.60;99.90
42615;DHT22;28754;47.700;7.924;2023-03-16T02:26:39;1.60;99.90
42615;DHT22;28754;47.700;7.924;2023-03-16T02:32:51;1.60;99.90
42615;DHT22;28754;47.700;7.924;2023-03-16T02:35:40;1.60;99.90
42615;DHT22;28754;47.700;7.924;2023-03-16T02:38:27;1.60;99.90
42615;DHT22;28754;47.700;7.924;2023-03-16T02:41:15;1.60;99.90
42615;DHT22;28754;47.700;7.924;2023-03-16T02:44:06;1.60;99.90
42615;DHT22;28754;47.700;7.924;2023-03-16T02:47:10;1.60;99.90
42615;DHT22;28754;47.700;7.924;2023-03-16T02:50:02;1.60;99.90
42615;DHT22;28754;47.700;7.924;2023-03-16T02:52:51;1.60;99.90
42615;DHT22;28754;47.700;7.924;2023-03-16T02:55:38;1.60;99.90
42615;DHT22;28754;47.700;7.924;2023-03-16T02:58:24;1.60;99.90
42615;DHT22;28754;47.700;7.924;2023-03-16T03:01:11;1.60;99.90
42615;DHT22;28754;47.700;7.924;2023-03-16T03:03:58;1.60;99.90
42615;DHT22;28754;47.700;7.924;2023-03-16T03:06:45;1.60;99.90
42615;DHT22;28754;47.700;7.924;2023-03-16T03:09:31;1.50;99.90
42615;DHT22;28754;47.700;7.924;2023-03-16T03:12:18;1.50;99.90
42615;DHT22;28754;47.700;7.924;2023-03-16T03:15:05;1.50;99.90
42615;DHT22;28754;47.700;7.924;2023-03-16T03:17:59;1.50;99.90
42615;DHT22;28754;47.700;7.924;2023-03-16T03:20:49;1.50;99.90
42615;DHT22;28754;47.700;7.924;2023-03-16T03:23:36;1.50;99.90
42615;DHT22;28754;47.700;7.924;2023-03-16T03:26:22;1.50;99.90
42615;DHT22;28754;47.700;7.924;2023-03-16T03:29:10;1.50;99.90
42615;DHT22;28754;47.700;7.924;2023-03-16T03:32:04;1.50;99.90
42615;DHT22;28754;47.700;7.924;2023-03-16T03:34:52;1.50;99.90
42615;DHT22;28754;47.700;7.924;2023-03-16T03:37:38;1.40;99.90
42615;DHT22;28754;47.700;7.924;2023-03-16T03:40:27;1.50;99.90
42615;DHT22;28754;47.700;7.924;2023-03-16T03:43:18;1.50;99.90
42615;DHT22;28754;47.700;7.924;2023-03-16T03:46:06;1.40;99.90
42615;DHT22;28754;47.700;7.924;2023-03-16T03:48:54;1.40;99.90
42615;DHT22;28754;47.700;7.924;2023-03-16T03:51:41;1.40;99.90
42615;DHT22;28754;47.700;7.924;2023-03-16T03:54:32;1.30;99.90
42615;DHT22;28754;47.700;7.924;2023-03-16T03:57:23;1.40;99.90
42615;DHT22;28754;47.700;7.924;2023-03-16T04:00:11;1.40;99.90
42615;DHT22;28754;47.700;7.924;2023-03-16T04:03:03;1.40;99.90
42615;DHT22;28754;47.700;7.924;2023-03-16T04:05:56;1.40;99.90
42615;DHT22;28754;47.700;7.924;2023-03-16T04:08:42;1.40;99.90
42615;DHT22;28754;47.700;7.924;2023-03-16T04:11:34;1.40;99.90
42615;DHT22;28754;47.700;7.924;2023-03-16T04:14:20;1.40;99.90
42615;DHT22;28754;47.700;7.924;2023-03-16T04:17:07;1.40;99.90
42615;DHT22;28754;47.700;7.924;2023-03-16T04:19:56;1.40;99.90
42615;DHT22;28754;47.700;7.924;2023-03-16T04:22:44;1.40;99.90
42615;DHT22;28754;47.700;7.924;2023-03-16T04:25:33;1.30;99.90
42615;DHT22;28754;47.700;7.924;2023-03-16T04:28:23;1.30;99.90
42615;DHT22;28754;47.700;7.924;2023-03-16T04:31:12;1.30;99.90
42615;DHT22;28754;47.700;7.924;2023-03-16T04:34:02;1.30;99.90
42615;DHT22;28754;47.700;7.924;2023-03-16T04:36:50;1.40;99.90
42615;DHT22;28754;47.700;7.924;2023-03-16T04:39:37;1.40;99.90
42615;DHT22;28754;47.700;7.924;2023-03-16T04:42:25;1.40;99.90
42615;DHT22;28754;47.700;7.924;2023-03-16T04:45:12;1.40;99.90
42615;DHT22;28754;47.700;7.924;2023-03-16T04:48:00;1.40;99.90
42615;DHT22;28754;47.700;7.924;2023-03-16T04:50:47;1.40;99.90
42615;DHT22;28754;47.700;7.924;2023-03-16T04:53:35;1.40;99.90
42615;DHT22;28754;47.700;7.924;2023-03-16T04:56:29;1.30;99.90
42615;DHT22;28754;47.700;7.924;2023-03-16T04:59:21;1.30;99.90
42615;DHT22;28754;47.700;7.924;2023-03-16T05:02:17;1.40;99.90
42615;DHT22;28754;47.700;7.924;2023-03-16T05:05:05;1.40;99.90
42615;DHT22;28754;47.700;7.924;2023-03-16T05:07:52;1.30;99.90
42615;DHT22;28754;47.700;7.924;2023-03-16T05:10:39;1.30;99.90
42615;DHT22;28754;47.700;7.924;2023-03-16T05:13:26;1.30;99.90
42615;DHT22;28754;47.700;7.924;2023-03-16T05:16:16;1.30;99.90
42615;DHT22;28754;47.700;7.924;2023-03-16T05:19:03;1.30;99.90
42615;DHT22;28754;47.700;7.924;2023-03-16T05:21:53;1.30;99.90
42615;DHT22;28754;47.700;7.924;2023-03-16T05:24:39;1.30;99.90
42615;DHT22;28754;47.700;7.924;2023-03-16T05:27:26;1.30;99.90
42615;DHT22;28754;47.700;7.924;2023-03-16T05:30:13;1.40;99.90
42615;DHT22;28754;47.700;7.924;2023-03-16T05:33:02;1.40;99.90
42615;DHT22;28754;47.700;7.924;2023-03-16T05:35:49;1.40;99.90
42615;DHT22;28754;47.700;7.924;2023-03-16T05:38:36;1.40;99.90
42615;DHT22;28754;47.700;7.924;2023-03-16T05:41:25;1.40;99.90
42615;DHT22;28754;47.700;7.924;2023-03-16T05:44:22;1.40;99.90
42615;DHT22;28754;47.700;7.924;2023-03-16T05:47:29;1.40;99.90
42615;DHT22;28754;47.700;7.924;2023-03-16T05:50:17;1.50;99.90
42615;DHT22;28754;47.700;7.924;2023-03-16T05:53:04;1.60;99.90
42615;DHT22;28754;47.700;7.924;2023-03-16T05:55:51;1.60;99.90
42615;DHT22;28754;47.700;7.924;2023-03-16T05:58:39;1.70;99.90
42615;DHT22;28754;47.700;7.924;2023-03-16T06:01:27;1.80;99.90
42615;DHT22;28754;47.700;7.924;2023-03-16T06:04:14;1.90;99.90
42615;DHT22;28754;47.700;7.924;2023-03-16T06:07:01;2.50;99.90
42615;DHT22;28754;47.700;7.924;2023-03-16T06:09:49;2.80;99.90
42615;DHT22;28754;47.700;7.924;2023-03-16T06:12:36;2.70;99.90
42615;DHT22;28754;47.700;7.924;2023-03-16T06:15:23;2.90;99.90
42615;DHT22;28754;47.700;7.924;2023-03-16T06:18:13;3.50;99.90
42615;DHT22;28754;47.700;7.924;2023-03-16T06:20:59;4.20;99.90
42615;DHT22;28754;47.700;7.924;2023-03-16T06:23:47;4.60;99.90
42615;DHT22;28754;47.700;7.924;2023-03-16T06:26:35;4.90;99.90
42615;DHT22;28754;47.700;7.924;2023-03-16T06:29:23;4.80;99.90
42615;DHT22;28754;47.700;7.924;2023-03-16T06:32:10;4.90;99.90
42615;DHT22;28754;47.700;7.924;2023-03-16T06:34:58;5.10;99.90
42615;DHT22;28754;47.700;7.924;2023-03-16T06:37:48;5.50;99.90
42615;DHT22;28754;47.700;7.924;2023-03-16T06:40:57;6.10;99.90
42615;DHT22;28754;47.700;7.924;2023-03-16T06:43:44;6.80;99.90
42615;DHT22;28754;47.700;7.924;2023-03-16T06:46:31;6.40;99.90
42615;DHT22;28754;47.700;7.924;2023-03-16T06:49:20;6.20;99.90
42615;DHT22;28754;47.700;7.924;2023-03-16T06:52:08;6.50;99.90
42615;DHT22;28754;47.700;7.924;2023-03-16T06:54:59;6.60;99.90
42615;DHT22;28754;47.700;7.924;2023-03-16T06:57:48;6.50;99.90
42615;DHT22;28754;47.700;7.924;2023-03-16T07:00:34;5.40;99.90
42615;DHT22;28754;47.700;7.924;2023-03-16T07:03:21;6.70;99.90
42615;DHT22;28754;47.700;7.924;2023-03-16T07:06:13;8.40;99.90
42615;DHT22;28754;47.700;7.924;2023-03-16T07:09:01;9.60;99.90
42615;DHT22;28754;47.700;7.924;2023-03-16T07:11:50;10.20;99.90
42615;DHT22;28754;47.700;7.924;2023-03-16T07:14:38;11.10;99.90
42615;DHT22;28754;47.700;7.924;2023-03-16T07:17:25;11.60;99.90
42615;DHT22;28754;47.700;7.924;2023-03-16T07:20:12;11.50;99.90
42615;DHT22;28754;47.700;7.924;2023-03-16T07:22:59;11.00;99.90
42615;DHT22;28754;47.700;7.924;2023-03-16T07:25:46;10.80;99.90
42615;DHT22;28754;47.700;7.924;2023-03-16T07:28:35;11.50;99.90
42615;DHT22;28754;47.700;7.924;2023-03-16T07:31:24;12.30;99.90
42615;DHT22;28754;47.700;7.924;2023-03-16T07:34:11;11.60;99.90
42615;DHT22;28754;47.700;7.924;2023-03-16T07:37:03;11.30;99.90
42615;DHT22;28754;47.700;7.924;2023-03-16T07:39:52;9.50;99.90
42615;DHT22;28754;47.700;7.924;2023-03-16T07:42:39;8.80;99.90
42615;DHT22;28754;47.700;7.924;2023-03-16T07:45:32;7.70;99.90
42615;DHT22;28754;47.700;7.924;2023-03-16T07:48:19;6.90;99.90
42615;DHT22;28754;47.700;7.924;2023-03-16T07:51:11;7.00;99.90
42615;DHT22;28754;47.700;7.924;2023-03-16T07:53:59;7.40;99.90
42615;DHT22;28754;47.700;7.924;2023-03-16T07:56:49;9.10;99.90
42615;DHT22;28754;47.700;7.924;2023-03-16T07:59:57;11.20;99.90
42615;DHT22;28754;47.700;7.924;2023-03-16T08:02:45;12.90;99.90
42615;DHT22;28754;47.700;7.924;2023-03-16T08:05:33;13.50;99.90
42615;DHT22;28754;47.700;7.924;2023-03-16T08:08:23;13.60;99.90
42615;DHT22;28754;47.700;7.924;2023-03-16T08:11:10;13.20;99.90
42615;DHT22;28754;47.700;7.924;2023-03-16T08:14:05;13.20;99.90
42615;DHT22;28754;47.700;7.924;2023-03-16T08:17:11;13.10;99.90
42615;DHT22;28754;47.700;7.924;2023-03-16T08:19:59;12.30;99.90
42615;DHT22;28754;47.700;7.924;2023-03-16T08:22:46;12.00;99.90
42615;DHT22;28754;47.700;7.924;2023-03-16T08:25:36;11.90;99.90
42615;DHT22;28754;47.700;7.924;2023-03-16T08:28:28;11.50;99.90
42615;DHT22;28754;47.700;7.924;2023-03-16T08:31:18;12.00;99.90
42615;DHT22;28754;47.700;7.924;2023-03-16T08:34:34;12.20;99.90
42615;DHT22;28754;47.700;7.924;2023-03-16T08:37:22;11.60;99.90
42615;DHT22;28754;47.700;7.924;2023-03-16T08:40:12;11.30;99.90
42615;DHT22;28754;47.700;7.924;2023-03-16T08:43:01;12.10;99.90
42615;DHT22;28754;47.700;7.924;2023-03-16T08:45:49;12.10;99.90
42615;DHT22;28754;47.700;7.924;2023-03-16T08:48:39;10.40;99.90
42615;DHT22;28754;47.700;7.924;2023-03-16T08:51:27;9.80;99.90
42615;DHT22;28754;47.700;7.924;2023-03-16T08:54:14;10.30;99.90
42615;DHT22;28754;47.700;7.924;2023-03-16T08:57:01;11.60;99.90
42615;DHT22;28754;47.700;7.924;2023-03-16T08:59:47;11.10;99.90
42615;DHT22;28754;47.700;7.924;2023-03-16T09:02:34;10.10;99.90
42615;DHT22;28754;47.700;7.924;2023-03-16T09:05:23;9.50;99.90
42615;DHT22;28754;47.700;7.924;2023-03-16T09:08:10;9.80;99.90
42615;DHT22;28754;47.700;7.924;2023-03-16T09:10:58;11.40;99.90
42615;DHT22;28754;47.700;7.924;2023-03-16T09:13:49;11.50;99.90
42615;DHT22;28754;47.700;7.924;2023-03-16T09:16:35;10.10;99.90
42615;DHT22;28754;47.700;7.924;2023-03-16T09:19:25;9.90;99.90
42615;DHT22;28754;47.700;7.924;2023-03-16T09:22:11;9.60;99.90
42615;DHT22;28754;47.700;7.924;2023-03-16T09:24:58;9.90;99.90
42615;DHT22;28754;47.700;7.924;2023-03-16T09:27:45;11.40;99.90
42615;DHT22;28754;47.700;7.924;2023-03-16T09:30:31;11.00;99.90
42615;DHT22;28754;47.700;7.924;2023-03-16T09:33:18;10.30;99.90
42615;DHT22;28754;47.700;7.924;2023-03-16T09:36:04;9.60;99.90
42615;DHT22;28754;47.700;7.924;2023-03-16T09:38:51;9.50;99.90
42615;DHT22;28754;47.700;7.924;2023-03-16T09:41:50;9.20;99.90
42615;DHT22;28754;47.700;7.924;2023-03-16T09:48:00;8.90;99.90
42615;DHT22;28754;47.700;7.924;2023-03-16T09:50:49;9.00;99.90
42615;DHT22;28754;47.700;7.924;2023-03-16T09:53:39;9.20;99.90
42615;DHT22;28754;47.700;7.924;2023-03-16T09:56:34;9.40;99.90
42615;DHT22;28754;47.700;7.924;2023-03-16T09:59:24;9.50;99.90
42615;DHT22;28754;47.700;7.924;2023-03-16T10:02:25;10.90;99.90
42615;DHT22;28754;47.700;7.924;2023-03-16T10:05:25;10.50;99.90
42615;DHT22;28754;47.700;7.924;2023-03-16T10:11:21;10.50;99.90
42615;DHT22;28754;47.700;7.924;2023-03-16T10:14:26;10.30;99.90
42615;DHT22;28754;47.700;7.924;2023-03-16T10:17:39;10.70;99.90
42615;DHT22;28754;47.700;7.924;2023-03-16T10:20:36;10.80;99.90
42615;DHT22;28754;47.700;7.924;2023-03-16T10:23:23;10.70;99.90
42615;DHT22;28754;47.700;7.924;2023-03-16T10:26:27;10.90;99.90
42615;DHT22;28754;47.700;7.924;2023-03-16T10:29:20;11.00;99.90
42615;DHT22;28754;47.700;7.924;2023-03-16T10:32:14;10.80;99.90
42615;DHT22;28754;47.700;7.924;2023-03-16T10:35:05;11.20;99.90
42615;DHT22;28754;47.700;7.924;2023-03-16T10:37:59;11.10;99.90
42615;DHT22;28754;47.700;7.924;2023-03-16T10:40:45;11.10;99.90
42615;DHT22;28754;47.700;7.924;2023-03-16T10:43:32;11.20;99.90
42615;DHT22;28754;47.700;7.924;2023-03-16T10:46:20;11.70;99.90
42615;DHT22;28754;47.700;7.924;2023-03-16T10:49:18;11.60;99.90
42615;DHT22;28754;47.700;7.924;2023-03-16T10:52:07;11.40;99.90
42615;DHT22;28754;47.700;7.924;2023-03-16T10:54:59;11.30;99.90
42615;DHT22;28754;47.700;7.924;2023-03-16T10:57:53;11.00;99.90
42615;DHT22;28754;47.700;7.924;2023-03-16T11:00:41;10.80;99.90
42615;DHT22;28754;47.700;7.924;2023-03-16T11:03:29;11.40;99.90
42615;DHT22;28754;47.700;7.924;2023-03-16T11:06:21;11.20;99.90
42615;DHT22;28754;47.700;7.924;2023-03-16T11:09:11;11.10;99.90
42615;DHT22;28754;47.700;7.924;2023-03-16T11:12:18;11.30;99.90
42615;DHT22;28754;47.700;7.924;2023-03-16T11:15:15;11.40;99.90
42615;DHT22;28754;47.700;7.924;2023-03-16T11:18:02;11.80;99.90
42615;DHT22;28754;47.700;7.924;2023-03-16T11:20:49;11.40;99.90
42615;DHT22;28754;47.700;7.924;2023-03-16T11:23:38;11.50;99.90
42615;DHT22;28754;47.700;7.924;2023-03-16T11:26:34;11.50;99.90
42615;DHT22;28754;47.700;7.924;2023-03-16T11:29:31;11.50;99.90
42615;DHT22;28754;47.700;7.924;2023-03-16T11:32:22;11.30;99.90
42615;DHT22;28754;47.700;7.924;2023-03-16T11:35:16;11.30;99.90
42615;DHT22;28754;47.700;7.924;2023-03-16T11:38:18;11.60;99.90
42615;DHT22;28754;47.700;7.924;2023-03-16T11:41:12;12.00;99.90
42615;DHT22;28754;47.700;7.924;2023-03-16T11:44:17;12.30;99.90
42615;DHT22;28754;47.700;7.924;2023-03-16T11:53:38;12.50;99.90
42615;DHT22;28754;47.700;7.924;2023-03-16T11:56:33;13.00;99.90
42615;DHT22;28754;47.700;7.924;2023-03-16T11:59:30;13.30;99.90
42615;DHT22;28754;47.700;7.924;2023-03-16T12:02:35;13.10;99.90
42615;DHT22;28754;47.700;7.924;2023-03-16T12:14:22;13.20;99.90
42615;DHT22;28754;47.700;7.924;2023-03-16T12:17:14;13.30;99.90
42615;DHT22;28754;47.700;7.924;2023-03-16T12:20:06;13.90;99.90
42615;DHT22;28754;47.700;7.924;2023-03-16T12:23:05;14.10;99.90
42615;DHT22;28754;47.700;7.924;2023-03-16T12:25:59;14.30;99.90
42615;DHT22;28754;47.700;7.924;2023-03-16T12:28:48;14.40;99.90
42615;DHT22;28754;47.700;7.924;2023-03-16T12:37:44;14.00;99.90
42615;DHT22;28754;47.700;7.924;2023-03-16T12:40:46;13.90;99.90
42615;DHT22;28754;47.700;7.924;2023-03-16T12:43:51;14.50;99.90
42615;DHT22;28754;47.700;7.924;2023-03-16T12:50:02;14.40;99.90
42615;DHT22;28754;47.700;7.924;2023-03-16T12:52:52;14.30;99.90
42615;DHT22;28754;47.700;7.924;2023-03-16T12:55:42;14.40;99.90
42615;DHT22;28754;47.700;7.924;2023-03-16T12:58:30;14.40;99.90
42615;DHT22;28754;47.700;7.924;2023-03-16T13:01:17;14.60;99.90
42615;DHT22;28754;47.700;7.924;2023-03-16T13:04:20;14.50;99.90
42615;DHT22;28754;47.700;7.924;2023-03-16T13:07:19;14.60;99.90
42615;DHT22;28754;47.700;7.924;2023-03-16T13:10:10;14.50;99.90
42615;DHT22;28754;47.700;7.924;2023-03-16T13:13:06;14.40;99.90
42615;DHT22;28754;47.700;7.924;2023-03-16T13:16:04;14.70;99.90
42615;DHT22;28754;47.700;7.924;2023-03-16T13:18:54;14.60;99.90
42615;DHT22;28754;47.700;7.924;2023-03-16T13:21:41;14.60;99.90
42615;DHT22;28754;47.700;7.924;2023-03-16T13:24:34;14.90;99.90
42615;DHT22;28754;47.700;7.924;2023-03-16T13:27:27;15.30;99.90
42615;DHT22;28754;47.700;7.924;2023-03-16T13:30:22;15.10;99.90
42615;DHT22;28754;47.700;7.924;2023-03-16T13:36:09;15.30;99.90
42615;DHT22;28754;47.700;7.924;2023-03-16T13:39:14;15.90;99.90
42615;DHT22;28754;47.700;7.924;2023-03-16T13:44:57;20.20;99.90
42615;DHT22;28754;47.700;7.924;2023-03-16T13:47:44;21.20;99.90
42615;DHT22;28754;47.700;7.924;2023-03-16T13:50:33;20.90;99.90
42615;DHT22;28754;47.700;7.924;2023-03-16T13:53:22;21.10;99.90
42615;DHT22;28754;47.700;7.924;2023-03-16T13:56:16;19.60;99.90
42615;DHT22;28754;47.700;7.924;2023-03-16T13:59:07;18.60;99.90
42615;DHT22;28754;47.700;7.924;2023-03-16T14:01:56;17.20;99.90
42615;DHT22;28754;47.700;7.924;2023-03-16T14:04:45;18.10;99.90
42615;DHT22;28754;47.700;7.924;2023-03-16T14:07:35;18.90;99.90
42615;DHT22;28754;47.700;7.924;2023-03-16T14:10:23;19.30;99.90
42615;DHT22;28754;47.700;7.924;2023-03-16T14:16:15;19.90;99.90
42615;DHT22;28754;47.700;7.924;2023-03-16T14:19:05;19.60;99.90
42615;DHT22;28754;47.700;7.924;2023-03-16T14:22:00;19.30;99.90
42615;DHT22;28754;47.700;7.924;2023-03-16T14:24:52;20.20;99.90
42615;DHT22;28754;47.700;7.924;2023-03-16T14:27:42;20.40;99.90
42615;DHT22;28754;47.700;7.924;2023-03-16T14:30:30;20.70;99.90
42615;DHT22;28754;47.700;7.924;2023-03-16T14:33:27;20.50;99.90
42615;DHT22;28754;47.700;7.924;2023-03-16T14:36:16;20.80;99.90
42615;DHT22;28754;47.700;7.924;2023-03-16T14:39:11;19.90;99.90
42615;DHT22;28754;47.700;7.924;2023-03-16T14:42:02;20.10;99.90
42615;DHT22;28754;47.700;7.924;2023-03-16T14:44:50;20.20;99.90
42615;DHT22;28754;47.700;7.924;2023-03-16T14:47:38;19.40;99.90
42615;DHT22;28754;47.700;7.924;2023-03-16T14:50:27;19.80;99.90
42615;DHT22;28754;47.700;7.924;2023-03-16T14:53:14;19.30;99.90
42615;DHT22;28754;47.700;7.924;2023-03-16T14:56:00;19.40;99.90
42615;DHT22;28754;47.700;7.924;2023-03-16T14:58:47;19.00;99.90
42615;DHT22;28754;47.700;7.924;2023-03-16T15:01:33;18.70;99.90
42615;DHT22;28754;47.700;7.924;2023-03-16T15:04:24;18.30;99.90
42615;DHT22;28754;47.700;7.924;2023-03-16T15:07:27;16.80;99.90
42615;DHT22;28754;47.700;7.924;2023-03-16T15:10:24;15.70;99.90
42615;DHT22;28754;47.700;7.924;2023-03-16T15:13:15;15.00;99.90
42615;DHT22;28754;47.700;7.924;2023-03-16T15:16:22;14.50;99.90
42615;DHT22;28754;47.700;7.924;2023-03-16T15:19:09;14.10;99.90
42615;DHT22;28754;47.700;7.924;2023-03-16T15:21:56;13.80;99.90
42615;DHT22;28754;47.700;7.924;2023-03-16T15:24:44;13.60;99.90
42615;DHT22;28754;47.700;7.924;2023-03-16T15:27:32;13.50;99.90
42615;DHT22;28754;47.700;7.924;2023-03-16T15:30:24;13.20;99.90
42615;DHT22;28754;47.700;7.924;2023-03-16T15:33:12;13.00;99.90
42615;DHT22;28754;47.700;7.924;2023-03-16T15:35:59;12.90;99.90
42615;DHT22;28754;47.700;7.924;2023-03-16T15:38:48;12.70;99.90
42615;DHT22;28754;47.700;7.924;2023-03-16T15:41:36;12.50;99.90
42615;DHT22;28754;47.700;7.924;2023-03-16T15:44:22;12.30;99.90
42615;DHT22;28754;47.700;7.924;2023-03-16T15:47:09;12.10;99.90
42615;DHT22;28754;47.700;7.924;2023-03-16T15:49:56;11.90;99.90
42615;DHT22;28754;47.700;7.924;2023-03-16T15:52:43;11.70;99.90
42615;DHT22;28754;47.700;7.924;2023-03-16T15:55:40;11.60;99.90
42615;DHT22;28754;47.700;7.924;2023-03-16T15:58:29;11.50;99.90
42615;DHT22;28754;47.700;7.924;2023-03-16T16:01:21;11.30;99.90
42615;DHT22;28754;47.700;7.924;2023-03-16T16:04:14;11.20;99.90
42615;DHT22;28754;47.700;7.924;2023-03-16T16:07:05;11.20;99.90
42615;DHT22;28754;47.700;7.924;2023-03-16T16:09:55;11.00;99.90
42615;DHT22;28754;47.700;7.924;2023-03-16T16:12:42;10.90;99.90
42615;DHT22;28754;47.700;7.924;2023-03-16T16:15:36;10.80;99.90
42615;DHT22;28754;47.700;7.924;2023-03-16T16:18:24;10.90;99.90
42615;DHT22;28754;47.700;7.924;2023-03-16T16:21:16;10.80;99.90
42615;DHT22;28754;47.700;7.924;2023-03-16T16:24:06;10.80;99.90
42615;DHT22;28754;47.700;7.924;2023-03-16T16:26:53;10.70;99.90
42615;DHT22;28754;47.700;7.924;2023-03-16T16:29:39;10.60;99.90
42615;DHT22;28754;47.700;7.924;2023-03-16T16:32:26;10.50;99.90
42615;DHT22;28754;47.700;7.924;2023-03-16T16:35:13;10.60;99.90
42615;DHT22;28754;47.700;7.924;2023-03-16T16:38:02;10.70;99.90
42615;DHT22;28754;47.700;7.924;2023-03-16T16:40:49;10.70;99.90
42615;DHT22;28754;47.700;7.924;2023-03-16T16:46:29;10.70;99.90
42615;DHT22;28754;47.700;7.924;2023-03-16T16:49:23;10.50;99.90
42615;DHT22;28754;47.700;7.924;2023-03-16T16:52:15;10.40;99.90
42615;DHT22;28754;47.700;7.924;2023-03-16T16:55:02;10.50;99.90
42615;DHT22;28754;47.700;7.924;2023-03-16T16:57:50;10.40;99.90
42615;DHT22;28754;47.700;7.924;2023-03-16T17:00:39;10.40;99.90
42615;DHT22;28754;47.700;7.924;2023-03-16T17:03:27;10.30;99.90
42615;DHT22;28754;47.700;7.924;2023-03-16T17:06:16;10.20;99.90
42615;DHT22;28754;47.700;7.924;2023-03-16T17:09:05;10.10;99.90
42615;DHT22;28754;47.700;7.924;2023-03-16T17:11:53;9.90;99.90
42615;DHT22;28754;47.700;7.924;2023-03-16T17:14:43;9.70;99.90
42615;DHT22;28754;47.700;7.924;2023-03-16T17:17:30;9.60;99.90
42615;DHT22;28754;47.700;7.924;2023-03-16T17:20:18;9.50;99.90
42615;DHT22;28754;47.700;7.924;2023-03-16T17:23:18;9.30;99.90
42615;DHT22;28754;47.700;7.924;2023-03-16T17:26:15;9.20;99.90
42615;DHT22;28754;47.700;7.924;2023-03-16T17:29:29;9.10;99.90
42615;DHT22;28754;47.700;7.924;2023-03-16T17:32:18;9.00;99.90
42615;DHT22;28754;47.700;7.924;2023-03-16T17:35:13;8.80;99.90
42615;DHT22;28754;47.700;7.924;2023-03-16T17:38:00;8.70;99.90
42615;DHT22;28754;47.700;7.924;2023-03-16T17:40:47;8.50;99.90
42615;DHT22;28754;47.700;7.924;2023-03-16T17:43:34;8.50;99.90
42615;DHT22;28754;47.700;7.924;2023-03-16T17:46:24;8.30;99.90
42615;DHT22;28754;47.700;7.924;2023-03-16T17:49:13;8.10;99.90
42615;DHT22;28754;47.700;7.924;2023-03-16T17:52:04;8.10;99.90
42615;DHT22;28754;47.700;7.924;2023-03-16T17:55:03;8.00;99.90
42615;DHT22;28754;47.700;7.924;2023-03-16T17:57:50;8.00;99.90
42615;DHT22;28754;47.700;7.924;2023-03-16T18:00:38;8.00;99.90
42615;DHT22;28754;47.700;7.924;2023-03-16T18:03:27;7.90;99.90
42615;DHT22;28754;47.700;7.924;2023-03-16T18:06:23;7.90;99.90
42615;DHT22;28754;47.700;7.924;2023-03-16T18:09:11;8.00;99.90
42615;DHT22;28754;47.700;7.924;2023-03-16T18:11:59;7.90;99.90
42615;DHT22;28754;47.700;7.924;2023-03-16T18:14:46;7.90;99.90
42615;DHT22;28754;47.700;7.924;2023-03-16T18:17:33;7.70;99.90
42615;DHT22;28754;47.700;7.924;2023-03-16T18:20:22;7.70;99.90
42615;DHT22;28754;47.700;7.924;2023-03-16T18:23:11;7.70;99.90
42615;DHT22;28754;47.700;7.924;2023-03-16T18:26:03;7.60;99.90
42615;DHT22;28754;47.700;7.924;2023-03-16T18:28:52;7.70;99.90
42615;DHT22;28754;47.700;7.924;2023-03-16T18:31:38;7.70;99.90
42615;DHT22;28754;47.700;7.924;2023-03-16T18:34:32;7.70;99.90
42615;DHT22;28754;47.700;7.924;2023-03-16T18:37:23;7.70;99.90
42615;DHT22;28754;47.700;7.924;2023-03-16T18:40:16;7.70;99.90
42615;DHT22;28754;47.700;7.924;2023-03-16T18:43:04;7.70;99.90
42615;DHT22;28754;47.700;7.924;2023-03-16T18:45:51;7.60;99.90
42615;DHT22;28754;47.700;7.924;2023-03-16T18:48:38;7.60;99.90
42615;DHT22;28754;47.700;7.924;2023-03-16T18:51:25;7.50;99.90
42615;DHT22;28754;47.700;7.924;2023-03-16T18:54:19;7.50;99.90
42615;DHT22;28754;47.700;7.924;2023-03-16T18:57:13;7.40;99.90
42615;DHT22;28754;47.700;7.924;2023-03-16T19:00:01;7.40;99.90
42615;DHT22;28754;47.700;7.924;2023-03-16T19:02:52;7.40;99.90